sensor_id;sensor_type;location;lat;lon;timestamp;temperature;humidity
3923;DHT22;1976;51.694;6.256;2022-12-18T00:00:43;-3.60;99.90
3923;DHT22;1976;51.694;6.256;2022-12-18T00:03:09;-3.60;99.90
3923;DHT22;1976;51.694;6.256;2022-12-18T00:05:35;-3.60;99.90
3923;DHT22;1976;51.694;6.256;2022-12-18T00:08:02;-3.60;99.90
3923;DHT22;1976;51.694;6.256;2022-12-18T00:10:28;-3.60;99.90
3923;DHT22;1976;51.694;6.256;2022-12-18T00:12:54;-3.60;99.90
3923;DHT22;1976;51.694;6.256;2022-12-18T00:15:20;-3.60;99.90
3923;DHT22;1976;51.694;6.256;2022-12-18T00:17:45;-3.60;99.90
3923;DHT22;1976;51.694;6.256;2022-12-18T00:20:11;-3.60;99.90
3923;DHT22;1976;51.694;6.256;2022-12-18T00:22:37;-3.60;99.90
3923;DHT22;1976;51.694;6.256;2022-12-18T00:25:02;-3.70;99.90
3923;DHT22;1976;51.694;6.256;2022-12-18T00:27:28;-3.60;99.90
3923;DHT22;1976;51.694;6.256;2022-12-18T00:29:54;-3.60;99.90
3923;DHT22;1976;51.694;6.256;2022-12-18T00:32:19;-3.60;99.90
3923;DHT22;1976;51.694;6.256;2022-12-18T00:34:45;-3.60;99.90
3923;DHT22;1976;51.694;6.256;2022-12-18T00:37:10;-3.60;99.90
3923;DHT22;1976;51.694;6.256;2022-12-18T00:39:36;-3.60;99.90
3923;DHT22;1976;51.694;6.256;2022-12-18T00:42:02;-3.60;99.90
3923;DHT22;1976;51.694;6.256;2022-12-18T00:44:46;-3.60;99.90
3923;DHT22;1976;51.694;6.256;2022-12-18T00:47:11;-3.60;99.90
3923;DHT22;1976;51.694;6.256;2022-12-18T00:49:37;-3.60;99.90
3923;DHT22;1976;51.694;6.256;2022-12-18T00:52:03;-3.50;99.90
3923;DHT22;1976;51.694;6.256;2022-12-18T00:54:28;-3.60;99.90
3923;DHT22;1976;51.694;6.256;2022-12-18T00:56:54;-3.70;99.90
3923;DHT22;1976;51.694;6.256;2022-12-18T00:59:20;-3.70;99.90
3923;DHT22;1976;51.694;6.256;2022-12-18T01:01:46;-3.70;99.90
3923;DHT22;1976;51.694;6.256;2022-12-18T01:04:12;-3.70;99.90
3923;DHT22;1976;51.694;6.256;2022-12-18T01:06:38;-3.60;99.90
3923;DHT22;1976;51.694;6.256;2022-12-18T01:09:04;-3.60;99.90
3923;DHT22;1976;51.694;6.256;2022-12-18T01:11:29;-3.60;99.90
3923;DHT22;1976;51.694;6.256;2022-12-18T01:13:55;-3.60;99.90
3923;DHT22;1976;51.694;6.256;2022-12-18T01:16:21;-3.60;99.90
3923;DHT22;1976;51.694;6.256;2022-12-18T01:18:46;-3.60;99.90
3923;DHT22;1976;51.694;6.256;2022-12-18T01:21:15;-3.60;99.90
3923;DHT22;1976;51.694;6.256;2022-12-18T01:23:44;-3.60;99.90
3923;DHT22;1976;51.694;6.256;2022-12-18T01:26:13;-3.60;99.90
3923;DHT22;1976;51.694;6.256;2022-12-18T01:36:05;-3.60;99.90
3923;DHT22;1976;51.694;6.256;2022-12-18T01:38:30;-3.70;99.90
3923;DHT22;1976;51.694;6.256;2022-12-18T01:41:00;-3.70;99.90
3923;DHT22;1976;51.694;6.256;2022-12-18T01:46:07;-3.60;99.90
3923;DHT22;1976;51.694;6.256;2022-12-18T01:48:32;-3.60;99.90
3923;DHT22;1976;51.694;6.256;2022-12-18T01:51:01;-3.70;99.90
3923;DHT22;1976;51.694;6.256;2022-12-18T01:53:27;-3.60;99.90
3923;DHT22;1976;51.694;6.256;2022-12-18T01:55:56;-3.60;99.90
3923;DHT22;1976;51.694;6.256;2022-12-18T02:01:06;-3.50;99.90
3923;DHT22;1976;51.694;6.256;2022-12-18T02:03:32;-3.50;99.90
3923;DHT22;1976;51.694;6.256;2022-12-18T02:06:11;-3.50;99.90
3923;DHT22;1976;51.694;6.256;2022-12-18T02:09:11;-3.50;99.90
3923;DHT22;1976;51.694;6.256;2022-12-18T02:14:34;-3.50;99.90
3923;DHT22;1976;51.694;6.256;2022-12-18T02:27:49;-3.40;99.90
3923;DHT22;1976;51.694;6.256;2022-12-18T02:30:17;-3.40;99.90
3923;DHT22;1976;51.694;6.256;2022-12-18T02:32:50;-3.40;99.90
3923;DHT22;1976;51.694;6.256;2022-12-18T02:35:20;-3.50;99.90
3923;DHT22;1976;51.694;6.256;2022-12-18T02:37:47;-3.50;99.90
3923;DHT22;1976;51.694;6.256;2022-12-18T02:40:14;-3.50;99.90
3923;DHT22;1976;51.694;6.256;2022-12-18T02:42:41;-3.40;99.90
3923;DHT22;1976;51.694;6.256;2022-12-18T02:45:06;-3.40;99.90
3923;DHT22;1976;51.694;6.256;2022-12-18T02:47:36;-3.40;99.90
3923;DHT22;1976;51.694;6.256;2022-12-18T02:56:03;-3.50;99.90
3923;DHT22;1976;51.694;6.256;2022-12-18T03:03:55;-3.50;99.90
3923;DHT22;1976;51.694;6.256;2022-12-18T03:09:17;-3.50;99.90
3923;DHT22;1976;51.694;6.256;2022-12-18T03:11:49;-3.50;99.90
3923;DHT22;1976;51.694;6.256;2022-12-18T03:14:38;-3.50;99.90
3923;DHT22;1976;51.694;6.256;2022-12-18T03:17:05;-3.60;99.90
3923;DHT22;1976;51.694;6.256;2022-12-18T03:19:33;-3.50;99.90
3923;DHT22;1976;51.694;6.256;2022-12-18T03:24:29;-3.50;99.90
3923;DHT22;1976;51.694;6.256;2022-12-18T03:27:02;-3.50;99.90
3923;DHT22;1976;51.694;6.256;2022-12-18T03:29:38;-3.50;99.90
3923;DHT22;1976;51.694;6.256;2022-12-18T03:32:09;-3.50;99.90
3923;DHT22;1976;51.694;6.256;2022-12-18T03:34:38;-3.50;99.90
3923;DHT22;1976;51.694;6.256;2022-12-18T03:37:06;-3.50;99.90
3923;DHT22;1976;51.694;6.256;2022-12-18T03:39:34;-3.50;99.90
3923;DHT22;1976;51.694;6.256;2022-12-18T03:44:33;-3.40;99.90
3923;DHT22;1976;51.694;6.256;2022-12-18T03:47:13;-3.40;99.90
3923;DHT22;1976;51.694;6.256;2022-12-18T03:52:40;-3.50;99.90
3923;DHT22;1976;51.694;6.256;2022-12-18T03:55:09;-3.50;99.90
3923;DHT22;1976;51.694;6.256;2022-12-18T03:57:35;-3.50;99.90
3923;DHT22;1976;51.694;6.256;2022-12-18T04:00:13;-3.50;99.90
3923;DHT22;1976;51.694;6.256;2022-12-18T04:02:50;-3.50;99.90
3923;DHT22;1976;51.694;6.256;2022-12-18T04:05:17;-3.50;99.90
3923;DHT22;1976;51.694;6.256;2022-12-18T04:07:45;-3.50;99.90
3923;DHT22;1976;51.694;6.256;2022-12-18T04:10:12;-3.50;99.90
3923;DHT22;1976;51.694;6.256;2022-12-18T04:12:39;-3.70;99.90
3923;DHT22;1976;51.694;6.256;2022-12-18T04:15:06;-3.50;99.90
3923;DHT22;1976;51.694;6.256;2022-12-18T04:17:31;-3.50;99.90
3923;DHT22;1976;51.694;6.256;2022-12-18T04:19:57;-3.50;99.90
3923;DHT22;1976;51.694;6.256;2022-12-18T04:22:22;-3.50;99.90
3923;DHT22;1976;51.694;6.256;2022-12-18T04:24:48;-3.50;99.90
3923;DHT22;1976;51.694;6.256;2022-12-18T04:27:14;-3.50;99.90
3923;DHT22;1976;51.694;6.256;2022-12-18T04:29:39;-3.50;99.90
3923;DHT22;1976;51.694;6.256;2022-12-18T04:32:05;-3.50;99.90
3923;DHT22;1976;51.694;6.256;2022-12-18T04:34:31;-3.40;99.90
3923;DHT22;1976;51.694;6.256;2022-12-18T04:36:56;-3.40;99.90
3923;DHT22;1976;51.694;6.256;2022-12-18T04:39:22;-3.40;99.90
3923;DHT22;1976;51.694;6.256;2022-12-18T04:41:47;-3.40;99.90
3923;DHT22;1976;51.694;6.256;2022-12-18T04:44:13;-3.40;99.90
3923;DHT22;1976;51.694;6.256;2022-12-18T04:49:05;-3.30;99.90
3923;DHT22;1976;51.694;6.256;2022-12-18T04:51:30;-3.30;99.90
3923;DHT22;1976;51.694;6.256;2022-12-18T04:53:56;-3.30;99.90
3923;DHT22;1976;51.694;6.256;2022-12-18T04:56:22;-3.20;99.90
3923;DHT22;1976;51.694;6.256;2022-12-18T04:58:48;-3.20;99.90
3923;DHT22;1976;51.694;6.256;2022-12-18T05:01:17;-3.20;99.90
3923;DHT22;1976;51.694;6.256;2022-12-18T05:03:43;-3.20;99.90
3923;DHT22;1976;51.694;6.256;2022-12-18T05:06:09;-3.20;99.90
3923;DHT22;1976;51.694;6.256;2022-12-18T05:08:35;-3.20;99.90
3923;DHT22;1976;51.694;6.256;2022-12-18T05:11:03;-3.20;99.90
3923;DHT22;1976;51.694;6.256;2022-12-18T05:13:29;-3.20;99.90
3923;DHT22;1976;51.694;6.256;2022-12-18T05:15:55;-3.10;99.90
3923;DHT22;1976;51.694;6.256;2022-12-18T05:18:22;-3.20;99.90
3923;DHT22;1976;51.694;6.256;2022-12-18T05:20:52;-3.10;99.90
3923;DHT22;1976;51.694;6.256;2022-12-18T05:23:18;-3.10;99.90
3923;DHT22;1976;51.694;6.256;2022-12-18T05:25:55;-3.10;99.90
3923;DHT22;1976;51.694;6.256;2022-12-18T05:28:22;-3.10;99.90
3923;DHT22;1976;51.694;6.256;2022-12-18T05:30:52;-3.10;99.90
3923;DHT22;1976;51.694;6.256;2022-12-18T05:33:19;-3.10;99.90
3923;DHT22;1976;51.694;6.256;2022-12-18T05:35:53;-3.10;99.90
3923;DHT22;1976;51.694;6.256;2022-12-18T05:38:20;-3.10;99.90
3923;DHT22;1976;51.694;6.256;2022-12-18T05:40:47;-3.10;99.90
3923;DHT22;1976;51.694;6.256;2022-12-18T05:43:13;-3.00;99.90
3923;DHT22;1976;51.694;6.256;2022-12-18T05:45:39;-3.00;99.90
3923;DHT22;1976;51.694;6.256;2022-12-18T05:48:06;-3.00;99.90
3923;DHT22;1976;51.694;6.256;2022-12-18T05:50:35;-3.10;99.90
3923;DHT22;1976;51.694;6.256;2022-12-18T05:53:02;-3.00;99.90
3923;DHT22;1976;51.694;6.256;2022-12-18T05:55:28;-3.10;99.90
3923;DHT22;1976;51.694;6.256;2022-12-18T05:57:54;-3.10;99.90
3923;DHT22;1976;51.694;6.256;2022-12-18T06:00:19;-3.10;99.90
3923;DHT22;1976;51.694;6.256;2022-12-18T06:02:48;-3.10;99.90
3923;DHT22;1976;51.694;6.256;2022-12-18T06:05:14;-3.00;99.90
3923;DHT22;1976;51.694;6.256;2022-12-18T06:07:39;-3.00;99.90
3923;DHT22;1976;51.694;6.256;2022-12-18T06:10:06;-3.00;99.90
3923;DHT22;1976;51.694;6.256;2022-12-18T06:12:32;-3.00;99.90
3923;DHT22;1976;51.694;6.256;2022-12-18T06:14:59;-3.00;99.90
3923;DHT22;1976;51.694;6.256;2022-12-18T06:19:55;-2.90;99.90
3923;DHT22;1976;51.694;6.256;2022-12-18T06:22:20;-2.90;99.90
3923;DHT22;1976;51.694;6.256;2022-12-18T06:24:46;-2.80;99.90
3923;DHT22;1976;51.694;6.256;2022-12-18T06:27:12;-2.80;99.90
3923;DHT22;1976;51.694;6.256;2022-12-18T06:29:38;-2.70;99.90
3923;DHT22;1976;51.694;6.256;2022-12-18T06:32:03;-2.70;99.90
3923;DHT22;1976;51.694;6.256;2022-12-18T06:34:29;-2.70;99.90
3923;DHT22;1976;51.694;6.256;2022-12-18T06:36:55;-2.60;99.90
3923;DHT22;1976;51.694;6.256;2022-12-18T06:39:20;-2.60;99.90
3923;DHT22;1976;51.694;6.256;2022-12-18T06:41:46;-2.60;99.90
3923;DHT22;1976;51.694;6.256;2022-12-18T06:44:11;-2.50;99.90
3923;DHT22;1976;51.694;6.256;2022-12-18T06:46:37;-2.60;99.90
3923;DHT22;1976;51.694;6.256;2022-12-18T06:49:03;-2.50;99.90
3923;DHT22;1976;51.694;6.256;2022-12-18T06:51:29;-2.50;99.90
3923;DHT22;1976;51.694;6.256;2022-12-18T06:53:54;-2.50;99.90
3923;DHT22;1976;51.694;6.256;2022-12-18T06:56:20;-2.50;99.90
3923;DHT22;1976;51.694;6.256;2022-12-18T06:58:46;-2.50;99.90
3923;DHT22;1976;51.694;6.256;2022-12-18T07:01:11;-2.50;99.90
3923;DHT22;1976;51.694;6.256;2022-12-18T07:03:39;-2.40;99.90
3923;DHT22;1976;51.694;6.256;2022-12-18T07:06:05;-2.40;99.90
3923;DHT22;1976;51.694;6.256;2022-12-18T07:08:32;-2.40;99.90
3923;DHT22;1976;51.694;6.256;2022-12-18T07:10:57;-2.40;99.90
3923;DHT22;1976;51.694;6.256;2022-12-18T07:13:23;-2.30;99.90
3923;DHT22;1976;51.694;6.256;2022-12-18T09:15:50;1.20;97.90
3923;DHT22;1976;51.694;6.256;2022-12-18T09:18:18;1.70;97.10
3923;DHT22;1976;51.694;6.256;2022-12-18T09:20:44;2.20;96.10
3923;DHT22;1976;51.694;6.256;2022-12-18T09:23:11;2.30;95.40
3923;DHT22;1976;51.694;6.256;2022-12-18T09:25:37;2.50;94.80
3923;DHT22;1976;51.694;6.256;2022-12-18T09:28:17;2.60;94.80
3923;DHT22;1976;51.694;6.256;2022-12-18T09:30:46;2.60;94.60
3923;DHT22;1976;51.694;6.256;2022-12-18T09:33:12;2.70;94.80
3923;DHT22;1976;51.694;6.256;2022-12-18T09:35:42;2.70;94.60
3923;DHT22;1976;51.694;6.256;2022-12-18T09:38:13;2.70;94.30
3923;DHT22;1976;51.694;6.256;2022-12-18T09:40:51;2.60;94.20
3923;DHT22;1976;51.694;6.256;2022-12-18T09:44:09;2.30;94.40
3923;DHT22;1976;51.694;6.256;2022-12-18T09:46:17;2.30;94.90
3923;DHT22;1976;51.694;6.256;2022-12-18T09:48:47;2.20;94.90
3923;DHT22;1976;51.694;6.256;2022-12-18T09:53:44;2.10;94.70
3923;DHT22;1976;51.694;6.256;2022-12-18T09:56:16;2.00;95.10
3923;DHT22;1976;51.694;6.256;2022-12-18T09:58:48;2.00;95.00
3923;DHT22;1976;51.694;6.256;2022-12-18T10:01:21;2.10;95.20
3923;DHT22;1976;51.694;6.256;2022-12-18T10:03:47;2.10;95.40
3923;DHT22;1976;51.694;6.256;2022-12-18T10:06:24;2.20;95.40
3923;DHT22;1976;51.694;6.256;2022-12-18T10:20:16;2.20;95.00
3923;DHT22;1976;51.694;6.256;2022-12-18T10:23:12;2.30;94.90
3923;DHT22;1976;51.694;6.256;2022-12-18T10:28:14;2.30;95.00
3923;DHT22;1976;51.694;6.256;2022-12-18T10:30:41;2.20;94.70
3923;DHT22;1976;51.694;6.256;2022-12-18T10:33:19;2.10;94.90
3923;DHT22;1976;51.694;6.256;2022-12-18T10:35:47;2.10;95.30
3923;DHT22;1976;51.694;6.256;2022-12-18T10:43:19;2.30;95.30
3923;DHT22;1976;51.694;6.256;2022-12-18T10:46:01;2.40;94.80
3923;DHT22;1976;51.694;6.256;2022-12-18T10:48:28;2.40;94.80
3923;DHT22;1976;51.694;6.256;2022-12-18T10:50:55;2.20;94.80
3923;DHT22;1976;51.694;6.256;2022-12-18T10:53:24;2.10;94.90
3923;DHT22;1976;51.694;6.256;2022-12-18T10:55:52;2.10;95.30
3923;DHT22;1976;51.694;6.256;2022-12-18T10:58:26;2.10;95.10
3923;DHT22;1976;51.694;6.256;2022-12-18T11:03:36;2.00;95.70
3923;DHT22;1976;51.694;6.256;2022-12-18T11:06:13;2.00;96.10
3923;DHT22;1976;51.694;6.256;2022-12-18T11:08:41;2.00;95.90
3923;DHT22;1976;51.694;6.256;2022-12-18T11:16:20;1.90;95.60
3923;DHT22;1976;51.694;6.256;2022-12-18T11:18:45;1.90;95.80
3923;DHT22;1976;51.694;6.256;2022-12-18T11:21:12;1.90;95.60
3923;DHT22;1976;51.694;6.256;2022-12-18T11:23:47;1.80;95.70
3923;DHT22;1976;51.694;6.256;2022-12-18T11:26:14;1.80;95.70
3923;DHT22;1976;51.694;6.256;2022-12-18T11:31:18;1.90;95.70
3923;DHT22;1976;51.694;6.256;2022-12-18T11:33:56;2.00;95.60
3923;DHT22;1976;51.694;6.256;2022-12-18T11:36:23;2.00;95.50
3923;DHT22;1976;51.694;6.256;2022-12-18T11:38:53;2.10;95.40
3923;DHT22;1976;51.694;6.256;2022-12-18T11:44:21;2.20;95.60
3923;DHT22;1976;51.694;6.256;2022-12-18T11:46:56;2.30;95.20
3923;DHT22;1976;51.694;6.256;2022-12-18T11:49:28;2.30;95.00
3923;DHT22;1976;51.694;6.256;2022-12-18T11:54:27;2.30;94.60
3923;DHT22;1976;51.694;6.256;2022-12-18T11:59:43;2.40;94.80
3923;DHT22;1976;51.694;6.256;2022-12-18T12:05:01;2.40;94.80
3923;DHT22;1976;51.694;6.256;2022-12-18T12:13:30;2.50;94.50
3923;DHT22;1976;51.694;6.256;2022-12-18T12:16:19;2.50;94.70
3923;DHT22;1976;51.694;6.256;2022-12-18T12:19:15;2.40;94.60
3923;DHT22;1976;51.694;6.256;2022-12-18T12:22:03;2.40;94.60
3923;DHT22;1976;51.694;6.256;2022-12-18T12:24:55;2.10;94.90
3923;DHT22;1976;51.694;6.256;2022-12-18T12:30:11;2.00;95.20
3923;DHT22;1976;51.694;6.256;2022-12-18T12:38:25;2.00;95.00
3923;DHT22;1976;51.694;6.256;2022-12-18T12:41:02;1.90;95.20
3923;DHT22;1976;51.694;6.256;2022-12-18T12:43:42;2.00;95.60
3923;DHT22;1976;51.694;6.256;2022-12-18T12:46:13;2.00;95.20
3923;DHT22;1976;51.694;6.256;2022-12-18T12:48:52;2.00;95.00
3923;DHT22;1976;51.694;6.256;2022-12-18T12:51:23;2.00;95.60
3923;DHT22;1976;51.694;6.256;2022-12-18T12:53:49;2.00;95.10
3923;DHT22;1976;51.694;6.256;2022-12-18T12:56:17;2.00;95.40
3923;DHT22;1976;51.694;6.256;2022-12-18T12:59:11;2.00;95.10
3923;DHT22;1976;51.694;6.256;2022-12-18T13:01:54;2.00;95.00
3923;DHT22;1976;51.694;6.256;2022-12-18T13:04:47;1.90;95.20
3923;DHT22;1976;51.694;6.256;2022-12-18T13:12:36;2.00;95.30
3923;DHT22;1976;51.694;6.256;2022-12-18T13:17:48;2.00;95.60
3923;DHT22;1976;51.694;6.256;2022-12-18T13:22:46;2.10;95.60
3923;DHT22;1976;51.694;6.256;2022-12-18T13:25:36;2.20;95.70
3923;DHT22;1976;51.694;6.256;2022-12-18T13:38:23;2.30;95.00
3923;DHT22;1976;51.694;6.256;2022-12-18T13:48:33;2.10;95.10
3923;DHT22;1976;51.694;6.256;2022-12-18T13:51:09;2.20;95.40
3923;DHT22;1976;51.694;6.256;2022-12-18T13:56:44;2.10;95.00
3923;DHT22;1976;51.694;6.256;2022-12-18T14:01:43;2.10;95.30
3923;DHT22;1976;51.694;6.256;2022-12-18T14:06:45;2.10;95.20
3923;DHT22;1976;51.694;6.256;2022-12-18T14:09:21;2.10;95.20
3923;DHT22;1976;51.694;6.256;2022-12-18T14:11:49;2.10;95.20
3923;DHT22;1976;51.694;6.256;2022-12-18T14:14:16;2.10;95.20
3923;DHT22;1976;51.694;6.256;2022-12-18T14:16:42;2.10;95.40
3923;DHT22;1976;51.694;6.256;2022-12-18T14:21:38;2.10;95.30
3923;DHT22;1976;51.694;6.256;2022-12-18T14:26:30;2.00;95.50
3923;DHT22;1976;51.694;6.256;2022-12-18T14:29:00;2.10;95.40
3923;DHT22;1976;51.694;6.256;2022-12-18T14:31:31;2.00;95.40
3923;DHT22;1976;51.694;6.256;2022-12-18T14:33:57;1.90;95.50
3923;DHT22;1976;51.694;6.256;2022-12-18T14:36:25;1.90;95.40
3923;DHT22;1976;51.694;6.256;2022-12-18T14:38:56;1.90;95.40
3923;DHT22;1976;51.694;6.256;2022-12-18T14:41:24;1.80;95.50
3923;DHT22;1976;51.694;6.256;2022-12-18T14:43:51;1.80;95.50
3923;DHT22;1976;51.694;6.256;2022-12-18T14:46:36;1.70;95.90
3923;DHT22;1976;51.694;6.256;2022-12-18T14:51:31;1.60;95.90
3923;DHT22;1976;51.694;6.256;2022-12-18T14:53:59;1.60;96.20
3923;DHT22;1976;51.694;6.256;2022-12-18T14:56:36;1.60;95.90
3923;DHT22;1976;51.694;6.256;2022-12-18T14:59:19;1.60;96.00
3923;DHT22;1976;51.694;6.256;2022-12-18T15:04:40;1.60;95.80
3923;DHT22;1976;51.694;6.256;2022-12-18T15:07:21;1.60;96.20
3923;DHT22;1976;51.694;6.256;2022-12-18T15:12:39;1.40;96.60
3923;DHT22;1976;51.694;6.256;2022-12-18T15:15:41;1.40;96.20
3923;DHT22;1976;51.694;6.256;2022-12-18T15:18:19;1.40;97.00
3923;DHT22;1976;51.694;6.256;2022-12-18T15:21:08;1.30;97.10
3923;DHT22;1976;51.694;6.256;2022-12-18T15:26:10;1.30;96.90
3923;DHT22;1976;51.694;6.256;2022-12-18T15:28:43;1.30;97.10
3923;DHT22;1976;51.694;6.256;2022-12-18T15:33:59;1.20;97.40
3923;DHT22;1976;51.694;6.256;2022-12-18T15:36:29;1.20;97.90
3923;DHT22;1976;51.694;6.256;2022-12-18T15:38:56;1.10;97.40
3923;DHT22;1976;51.694;6.256;2022-12-18T15:41:23;1.10;97.70
3923;DHT22;1976;51.694;6.256;2022-12-18T15:46:18;1.10;97.60
3923;DHT22;1976;51.694;6.256;2022-12-18T15:48:49;1.10;97.60
3923;DHT22;1976;51.694;6.256;2022-12-18T15:51:20;1.10;97.50
3923;DHT22;1976;51.694;6.256;2022-12-18T15:53:48;1.10;97.50
3923;DHT22;1976;51.694;6.256;2022-12-18T15:56:15;1.00;97.40
3923;DHT22;1976;51.694;6.256;2022-12-18T15:59:00;1.00;97.90
3923;DHT22;1976;51.694;6.256;2022-12-18T16:01:29;0.90;97.60
3923;DHT22;1976;51.694;6.256;2022-12-18T16:03:55;0.80;98.10
3923;DHT22;1976;51.694;6.256;2022-12-18T16:06:22;0.80;98.00
3923;DHT22;1976;51.694;6.256;2022-12-18T16:08:48;0.80;98.40
3923;DHT22;1976;51.694;6.256;2022-12-18T16:11:27;0.80;98.20
3923;DHT22;1976;51.694;6.256;2022-12-18T16:14:18;0.70;98.70
3923;DHT22;1976;51.694;6.256;2022-12-18T16:16:45;0.60;98.50
3923;DHT22;1976;51.694;6.256;2022-12-18T16:19:11;0.60;98.80
3923;DHT22;1976;51.694;6.256;2022-12-18T16:21:37;0.50;99.20
3923;DHT22;1976;51.694;6.256;2022-12-18T16:24:03;0.50;99.90
3923;DHT22;1976;51.694;6.256;2022-12-18T16:26:32;0.40;99.60
3923;DHT22;1976;51.694;6.256;2022-12-18T16:28:57;0.50;99.90
3923;DHT22;1976;51.694;6.256;2022-12-18T16:31:23;0.50;99.80
3923;DHT22;1976;51.694;6.256;2022-12-18T16:33:49;0.40;99.80
3923;DHT22;1976;51.694;6.256;2022-12-18T16:36:14;0.40;99.90
3923;DHT22;1976;51.694;6.256;2022-12-18T16:38:40;0.40;99.80
3923;DHT22;1976;51.694;6.256;2022-12-18T16:41:18;0.40;99.90
3923;DHT22;1976;51.694;6.256;2022-12-18T16:43:56;0.40;99.90
3923;DHT22;1976;51.694;6.256;2022-12-18T16:46:22;0.30;99.90
3923;DHT22;1976;51.694;6.256;2022-12-18T16:48:48;0.40;99.90
3923;DHT22;1976;51.694;6.256;2022-12-18T16:51:13;0.30;99.90
3923;DHT22;1976;51.694;6.256;2022-12-18T16:53:39;0.30;99.90
3923;DHT22;1976;51.694;6.256;2022-12-18T16:56:04;0.30;99.90
3923;DHT22;1976;51.694;6.256;2022-12-18T16:58:30;0.30;99.90
3923;DHT22;1976;51.694;6.256;2022-12-18T17:00:56;0.30;99.90
3923;DHT22;1976;51.694;6.256;2022-12-18T17:03:21;0.30;99.90
3923;DHT22;1976;51.694;6.256;2022-12-18T17:05:47;0.30;99.90
3923;DHT22;1976;51.694;6.256;2022-12-18T17:10:38;0.40;99.90
3923;DHT22;1976;51.694;6.256;2022-12-18T17:13:04;0.40;99.90
3923;DHT22;1976;51.694;6.256;2022-12-18T17:15:30;0.30;99.90
3923;DHT22;1976;51.694;6.256;2022-12-18T17:20:24;0.30;99.90
3923;DHT22;1976;51.694;6.256;2022-12-18T17:22:50;0.30;99.90
3923;DHT22;1976;51.694;6.256;2022-12-18T17:25:16;0.30;99.90
3923;DHT22;1976;51.694;6.256;2022-12-18T17:27:41;0.30;99.90
3923;DHT22;1976;51.694;6.256;2022-12-18T17:30:07;0.20;99.90
3923;DHT22;1976;51.694;6.256;2022-12-18T17:32:33;0.20;99.90
3923;DHT22;1976;51.694;6.256;2022-12-18T17:34:59;0.20;99.90
3923;DHT22;1976;51.694;6.256;2022-12-18T17:37:24;0.20;99.90
3923;DHT22;1976;51.694;6.256;2022-12-18T17:42:16;0.20;99.90
3923;DHT22;1976;51.694;6.256;2022-12-18T17:44:42;0.20;99.90
3923;DHT22;1976;51.694;6.256;2022-12-18T17:47:08;0.10;99.90
3923;DHT22;1976;51.694;6.256;2022-12-18T17:49:36;0.10;99.90
3923;DHT22;1976;51.694;6.256;2022-12-18T17:52:02;0.10;99.90
3923;DHT22;1976;51.694;6.256;2022-12-18T17:54:28;0.10;99.90
3923;DHT22;1976;51.694;6.256;2022-12-18T17:56:53;0.10;99.90
3923;DHT22;1976;51.694;6.256;2022-12-18T17:59:19;0.10;99.90
3923;DHT22;1976;51.694;6.256;2022-12-18T18:01:44;0.10;99.90
3923;DHT22;1976;51.694;6.256;2022-12-18T18:04:10;0.00;99.90
3923;DHT22;1976;51.694;6.256;2022-12-18T18:06:37;0.10;99.90
3923;DHT22;1976;51.694;6.256;2022-12-18T18:09:02;0.00;99.90
3923;DHT22;1976;51.694;6.256;2022-12-18T18:11:28;0.10;99.90
3923;DHT22;1976;51.694;6.256;2022-12-18T18:14:16;0.00;99.90
3923;DHT22;1976;51.694;6.256;2022-12-18T18:16:44;-0.10;99.90
3923;DHT22;1976;51.694;6.256;2022-12-18T18:19:13;0.00;99.90
3923;DHT22;1976;51.694;6.256;2022-12-18T18:21:41;0.00;99.90
3923;DHT22;1976;51.694;6.256;2022-12-18T18:24:07;0.10;99.90
3923;DHT22;1976;51.694;6.256;2022-12-18T18:26:35;0.10;99.90
3923;DHT22;1976;51.694;6.256;2022-12-18T18:29:02;0.10;99.90
3923;DHT22;1976;51.694;6.256;2022-12-18T18:31:29;0.10;99.90
3923;DHT22;1976;51.694;6.256;2022-12-18T18:33:56;0.10;99.90
3923;DHT22;1976;51.694;6.256;2022-12-18T18:36:22;0.10;99.90
3923;DHT22;1976;51.694;6.256;2022-12-18T18:38:48;0.10;99.90
3923;DHT22;1976;51.694;6.256;2022-12-18T18:41:14;0.10;99.90
3923;DHT22;1976;51.694;6.256;2022-12-18T18:43:40;0.10;99.90
3923;DHT22;1976;51.694;6.256;2022-12-18T18:46:06;0.10;99.90
3923;DHT22;1976;51.694;6.256;2022-12-18T18:48:34;0.20;99.90
3923;DHT22;1976;51.694;6.256;2022-12-18T18:51:07;0.20;99.90
3923;DHT22;1976;51.694;6.256;2022-12-18T18:53:36;0.30;99.90
3923;DHT22;1976;51.694;6.256;2022-12-18T18:56:02;0.30;99.90
3923;DHT22;1976;51.694;6.256;2022-12-18T18:58:28;0.30;99.90
3923;DHT22;1976;51.694;6.256;2022-12-18T19:00:59;0.30;99.90
3923;DHT22;1976;51.694;6.256;2022-12-18T19:05:57;0.20;99.90
3923;DHT22;1976;51.694;6.256;2022-12-18T19:08:29;0.20;99.90
3923;DHT22;1976;51.694;6.256;2022-12-18T19:10:56;0.20;99.90
3923;DHT22;1976;51.694;6.256;2022-12-18T19:13:26;0.20;99.90
3923;DHT22;1976;51.694;6.256;2022-12-18T19:16:05;0.20;99.90
3923;DHT22;1976;51.694;6.256;2022-12-18T19:21:04;0.20;99.90
3923;DHT22;1976;51.694;6.256;2022-12-18T19:23:30;0.20;99.90
3923;DHT22;1976;51.694;6.256;2022-12-18T19:26:04;0.20;99.90
3923;DHT22;1976;51.694;6.256;2022-12-18T19:28:30;0.20;99.90
3923;DHT22;1976;51.694;6.256;2022-12-18T19:30:59;0.30;99.90
3923;DHT22;1976;51.694;6.256;2022-12-18T19:33:26;0.30;99.90
3923;DHT22;1976;51.694;6.256;2022-12-18T19:35:52;0.40;99.90
3923;DHT22;1976;51.694;6.256;2022-12-18T19:38:18;0.50;99.90
3923;DHT22;1976;51.694;6.256;2022-12-18T19:40:45;0.50;99.90
3923;DHT22;1976;51.694;6.256;2022-12-18T19:43:11;0.50;99.90
3923;DHT22;1976;51.694;6.256;2022-12-18T19:45:37;0.50;99.90
3923;DHT22;1976;51.694;6.256;2022-12-18T19:48:04;0.50;99.90
3923;DHT22;1976;51.694;6.256;2022-12-18T19:50:30;0.50;99.90
3923;DHT22;1976;51.694;6.256;2022-12-18T19:52:55;0.50;99.90
3923;DHT22;1976;51.694;6.256;2022-12-18T19:55:21;0.50;99.90
3923;DHT22;1976;51.694;6.256;2022-12-18T19:57:47;0.40;99.90
3923;DHT22;1976;51.694;6.256;2022-12-18T20:00:13;0.50;99.90
3923;DHT22;1976;51.694;6.256;2022-12-18T20:02:38;0.40;99.90
3923;DHT22;1976;51.694;6.256;2022-12-18T20:05:07;0.50;99.90
3923;DHT22;1976;51.694;6.256;2022-12-18T20:07:33;0.50;99.90
3923;DHT22;1976;51.694;6.256;2022-12-18T20:09:59;0.50;99.90
3923;DHT22;1976;51.694;6.256;2022-12-18T20:14:51;0.50;99.90
3923;DHT22;1976;51.694;6.256;2022-12-18T20:17:17;0.50;99.90
3923;DHT22;1976;51.694;6.256;2022-12-18T20:19:42;0.40;99.90
3923;DHT22;1976;51.694;6.256;2022-12-18T20:24:34;0.40;99.90
3923;DHT22;1976;51.694;6.256;2022-12-18T20:27:01;0.40;99.90
3923;DHT22;1976;51.694;6.256;2022-12-18T20:29:26;0.30;99.90
3923;DHT22;1976;51.694;6.256;2022-12-18T20:34:18;0.20;99.90
3923;DHT22;1976;51.694;6.256;2022-12-18T20:36:45;0.20;99.90
3923;DHT22;1976;51.694;6.256;2022-12-18T20:39:10;0.10;99.90
3923;DHT22;1976;51.694;6.256;2022-12-18T20:44:02;0.10;99.90
3923;DHT22;1976;51.694;6.256;2022-12-18T20:46:28;0.10;99.90
3923;DHT22;1976;51.694;6.256;2022-12-18T20:48:57;0.00;99.90
3923;DHT22;1976;51.694;6.256;2022-12-18T20:51:23;0.00;99.90
3923;DHT22;1976;51.694;6.256;2022-12-18T20:53:49;-0.10;99.90
3923;DHT22;1976;51.694;6.256;2022-12-18T20:56:17;-0.10;99.90
3923;DHT22;1976;51.694;6.256;2022-12-18T20:58:43;-0.10;99.90
3923;DHT22;1976;51.694;6.256;2022-12-18T21:01:15;-0.10;99.90
3923;DHT22;1976;51.694;6.256;2022-12-18T21:03:42;-0.10;99.90
3923;DHT22;1976;51.694;6.256;2022-12-18T21:06:09;-0.20;99.90
3923;DHT22;1976;51.694;6.256;2022-12-18T21:11:31;-0.20;99.90
3923;DHT22;1976;51.694;6.256;2022-12-18T21:14:18;-0.20;99.90
3923;DHT22;1976;51.694;6.256;2022-12-18T21:16:44;-0.20;99.90
3923;DHT22;1976;51.694;6.256;2022-12-18T21:19:15;-0.20;99.90
3923;DHT22;1976;51.694;6.256;2022-12-18T21:21:42;-0.20;99.90
3923;DHT22;1976;51.694;6.256;2022-12-18T21:26:35;-0.20;99.90
3923;DHT22;1976;51.694;6.256;2022-12-18T21:29:03;-0.20;99.90
3923;DHT22;1976;51.694;6.256;2022-12-18T21:31:33;-0.20;99.90
3923;DHT22;1976;51.694;6.256;2022-12-18T21:33:59;-0.10;99.90
3923;DHT22;1976;51.694;6.256;2022-12-18T21:36:25;-0.10;99.90